createdAt,value
2019-06-07T00:00:40.734Z,772.00
2019-06-07T00:01:40.067Z,773.00
2019-06-07T00:02:41.753Z,773.00
2019-06-07T00:03:41.335Z,772.00
2019-06-07T00:04:43.167Z,772.00
2019-06-07T00:04:51.713Z,772.00
2019-06-07T00:05:53.130Z,772.00
2019-06-07T00:06:53.657Z,772.00
2019-06-07T00:07:54.296Z,774.00
2019-06-07T00:08:55.129Z,774.00
2019-06-07T00:09:54.690Z,773.00
2019-06-07T00:10:56.441Z,773.00
2019-06-07T00:11:57.022Z,773.00
2019-06-07T00:12:57.997Z,773.00
2019-06-07T00:13:57.802Z,773.00
2019-06-07T00:14:59.576Z,772.00
2019-06-07T00:16:00.316Z,770.00
2019-06-07T00:17:00.911Z,771.00
2019-06-07T00:18:01.567Z,771.00
2019-06-07T00:19:02.200Z,770.00
2019-06-07T00:20:02.909Z,770.00
2019-06-07T00:21:03.425Z,771.00
2019-06-07T00:22:17.682Z,770.00
2019-06-07T00:23:03.627Z,770.00
2019-06-07T00:24:05.184Z,771.00
2019-06-07T00:25:05.920Z,772.00
2019-06-07T00:26:06.349Z,773.00
2019-06-07T00:27:08.300Z,774.00
2019-06-07T00:28:06.659Z,774.00
2019-06-07T00:29:09.253Z,773.00
2019-06-07T00:30:32.678Z,774.00
2019-06-07T00:31:08.991Z,774.00
2019-06-07T00:32:09.383Z,773.00
2019-06-07T00:33:10.893Z,773.00
2019-06-07T00:34:10.795Z,774.00
2019-06-07T00:35:11.941Z,774.00
2019-06-07T00:36:14.612Z,773.00
2019-06-07T00:37:12.678Z,772.00
2019-06-07T00:38:14.213Z,772.00
2019-06-07T00:39:14.492Z,772.00
2019-06-07T00:40:18.491Z,772.00
2019-06-07T00:41:15.115Z,772.00
2019-06-07T00:42:18.600Z,772.00
2019-06-07T00:43:19.162Z,773.00
2019-06-07T00:44:19.601Z,773.00
2019-06-07T00:45:21.086Z,773.00
2019-06-07T00:46:18.834Z,774.00
2019-06-07T00:47:21.560Z,773.00
2019-06-07T00:48:28.761Z,774.00
2019-06-07T00:49:36.198Z,775.00
2019-06-07T00:50:23.460Z,774.00
2019-06-07T00:51:21.898Z,774.00
2019-06-07T00:53:11.477Z,775.00
2019-06-07T00:53:31.090Z,776.00
2019-06-07T00:54:24.065Z,775.00
2019-06-07T00:55:27.032Z,774.00
2019-06-07T00:56:23.529Z,774.00
2019-06-07T00:57:24.447Z,773.00
2019-06-07T00:58:27.478Z,773.00
2019-06-07T00:59:29.316Z,772.00
2019-06-07T01:00:25.704Z,773.00
2019-06-07T01:01:25.822Z,774.00
2019-06-07T01:02:31.226Z,774.00
2019-06-07T01:03:26.850Z,773.00
2019-06-07T01:04:27.933Z,774.00
2019-06-07T01:05:31.395Z,776.00
2019-06-07T01:06:28.206Z,776.00
2019-06-07T01:07:29.665Z,776.00
2019-06-07T01:08:30.350Z,776.00
2019-06-07T01:09:29.638Z,775.00
2019-06-07T01:10:52.458Z,775.00
2019-06-07T01:11:31.085Z,774.00
2019-06-07T01:12:32.976Z,774.00
2019-06-07T01:13:33.452Z,774.00
2019-06-07T01:14:34.093Z,774.00
2019-06-07T01:15:34.763Z,774.00
2019-06-07T01:16:55.300Z,774.00
2019-06-07T01:17:59.051Z,774.00
2019-06-07T01:18:41.031Z,773.00
2019-06-07T01:19:36.560Z,773.00
2019-06-07T01:20:37.950Z,773.00
2019-06-07T01:21:38.799Z,772.00
2019-06-07T01:21:48.338Z,772.00
2019-06-07T01:22:49.776Z,770.00
2019-06-07T01:24:11.866Z,771.00
2019-06-07T01:24:49.864Z,772.00
2019-06-07T01:25:51.373Z,771.00
2019-06-07T01:26:50.917Z,773.00
2019-06-07T01:27:51.328Z,773.00
2019-06-07T01:28:53.139Z,772.00
2019-06-07T01:29:53.620Z,770.00
2019-06-07T01:30:54.143Z,772.00
2019-06-07T01:31:54.839Z,771.00
2019-06-07T01:32:55.344Z,770.00
2019-06-07T01:33:54.818Z,770.00
2019-06-07T01:34:56.531Z,769.00
2019-06-07T01:35:56.998Z,771.00
2019-06-07T01:36:57.510Z,770.00
2019-06-07T01:37:58.158Z,770.00
2019-06-07T01:38:58.657Z,772.00
2019-06-07T01:39:59.335Z,772.00
2019-06-07T01:40:59.801Z,770.00
2019-06-07T01:42:00.347Z,769.00
2019-06-07T01:43:00.863Z,770.00
2019-06-07T01:44:01.335Z,770.00
2019-06-07T01:45:01.788Z,770.00
2019-06-07T01:46:01.873Z,773.00
2019-06-07T01:47:02.548Z,773.00
2019-06-07T01:48:03.462Z,773.00
2019-06-07T01:49:04.069Z,773.00
2019-06-07T01:50:04.617Z,773.00
2019-06-07T01:51:05.437Z,772.00
2019-06-07T01:52:04.830Z,772.00
2019-06-07T01:53:06.741Z,771.00
2019-06-07T01:54:49.437Z,771.00
2019-06-07T01:55:06.720Z,770.00
2019-06-07T01:56:08.301Z,772.00
2019-06-07T01:57:30.429Z,770.00
2019-06-07T01:58:08.430Z,770.00
2019-06-07T01:59:10.170Z,769.00
2019-06-07T02:00:11.087Z,769.00
2019-06-07T02:01:11.640Z,769.00
2019-06-07T02:02:12.245Z,769.00
2019-06-07T02:03:12.966Z,769.00
2019-06-07T02:04:13.829Z,769.00
2019-06-07T02:05:14.613Z,769.00
2019-06-07T02:06:14.696Z,770.00
2019-06-07T02:07:15.334Z,769.00
2019-06-07T02:08:14.802Z,769.00
2019-06-07T02:09:16.457Z,769.00
2019-06-07T02:10:19.443Z,769.00
2019-06-07T02:11:18.083Z,769.00
2019-06-07T02:12:28.118Z,769.00
2019-06-07T02:13:18.772Z,769.00
2019-06-07T02:14:19.606Z,769.00
2019-06-07T02:15:21.711Z,769.00
2019-06-07T02:16:19.856Z,769.00
2019-06-07T02:17:24.004Z,769.00
2019-06-07T02:18:22.964Z,768.00
2019-06-07T02:19:22.017Z,768.00
2019-06-07T02:20:25.774Z,769.00
2019-06-07T02:21:25.732Z,769.00
2019-06-07T02:21:34.379Z,769.00
2019-06-07T02:22:32.839Z,769.00
2019-06-07T02:23:34.464Z,769.00
2019-06-07T02:24:36.213Z,769.00
2019-06-07T02:25:42.236Z,771.00
2019-06-07T02:26:35.107Z,772.00
2019-06-07T02:27:36.641Z,770.00
2019-06-07T02:28:45.309Z,772.00
2019-06-07T02:29:37.066Z,772.00
2019-06-07T02:30:47.268Z,770.00
2019-06-07T02:31:39.814Z,773.00
2019-06-07T02:32:38.173Z,774.00
2019-06-07T02:33:40.543Z,775.00
2019-06-07T02:34:39.969Z,774.00
2019-06-07T02:35:41.241Z,774.00
2019-06-07T02:36:41.737Z,774.00
2019-06-07T02:37:41.329Z,773.00
2019-06-07T02:38:42.562Z,773.00
2019-06-07T02:39:42.519Z,772.00
2019-06-07T02:40:42.065Z,772.00
2019-06-07T02:41:43.598Z,772.00
2019-06-07T02:42:43.879Z,772.00
2019-06-07T02:43:44.408Z,772.00
2019-06-07T02:44:44.895Z,772.00
2019-06-07T02:45:45.715Z,773.00
2019-06-07T02:46:49.456Z,775.00
2019-06-07T02:47:45.442Z,775.00
2019-06-07T02:48:47.014Z,774.00
2019-06-07T02:49:47.459Z,773.00
2019-06-07T02:50:47.842Z,773.00
2019-06-07T02:51:48.397Z,773.00
2019-06-07T02:52:49.205Z,773.00
2019-06-07T02:53:48.513Z,772.00
2019-06-07T02:54:49.093Z,772.00
2019-06-07T02:56:34.168Z,773.00
2019-06-07T02:56:57.803Z,773.00
2019-06-07T02:57:51.035Z,775.00
2019-06-07T02:58:52.605Z,776.00
2019-06-07T03:00:06.493Z,777.00
2019-06-07T03:01:06.736Z,778.00
2019-06-07T03:01:53.265Z,776.00
2019-06-07T03:02:54.752Z,778.00
2019-06-07T03:03:55.576Z,778.00
2019-06-07T03:04:57.084Z,776.00
2019-06-07T03:05:56.661Z,775.00
2019-06-07T03:06:57.378Z,775.00
2019-06-07T03:07:57.852Z,775.00
2019-06-07T03:08:58.321Z,774.00
2019-06-07T03:09:58.800Z,775.00
2019-06-07T03:10:58.363Z,775.00
2019-06-07T03:11:59.794Z,776.00
2019-06-07T03:13:00.514Z,778.00
2019-06-07T03:14:01.111Z,780.00
2019-06-07T03:15:01.718Z,782.00
2019-06-07T03:16:02.287Z,781.00
2019-06-07T03:17:03.113Z,780.00
2019-06-07T03:18:03.658Z,778.00
2019-06-07T03:19:04.152Z,775.00
2019-06-07T03:19:12.700Z,775.00
2019-06-07T03:20:14.092Z,775.00
2019-06-07T03:21:13.490Z,775.00
2019-06-07T03:22:15.135Z,776.00
2019-06-07T03:23:15.582Z,775.00
2019-06-07T03:24:16.131Z,776.00
2019-06-07T03:25:15.689Z,777.00
2019-06-07T03:26:17.241Z,776.00
2019-06-07T03:27:41.342Z,775.00
2019-06-07T03:28:17.294Z,775.00
2019-06-07T03:29:19.036Z,774.00
2019-06-07T03:30:46.221Z,774.00
2019-06-07T03:31:19.250Z,775.00
2019-06-07T03:32:20.818Z,776.00
2019-06-07T03:33:21.475Z,775.00
2019-06-07T03:34:21.993Z,774.00
2019-06-07T03:35:22.655Z,774.00
2019-06-07T03:36:25.799Z,774.00
2019-06-07T03:37:22.215Z,774.00
2019-06-07T03:38:23.947Z,774.00
2019-06-07T03:39:25.290Z,774.00
2019-06-07T03:40:23.869Z,774.00
2019-06-07T03:41:25.360Z,774.00
2019-06-07T03:42:26.650Z,774.00
2019-06-07T03:43:25.116Z,774.00
2019-06-07T03:44:28.629Z,774.00
2019-06-07T03:45:28.517Z,773.00
2019-06-07T03:46:27.298Z,773.00
2019-06-07T03:47:29.188Z,773.00
2019-06-07T03:48:28.866Z,773.00
2019-06-07T03:49:30.739Z,773.00
2019-06-07T03:50:31.950Z,773.00
2019-06-07T03:51:30.647Z,773.00
2019-06-07T03:52:30.209Z,773.00
2019-06-07T03:53:31.143Z,772.00
2019-06-07T03:54:32.077Z,772.00
2019-06-07T03:55:37.743Z,772.00
2019-06-07T03:56:33.764Z,772.00
2019-06-07T03:58:27.506Z,772.00
2019-06-07T03:58:45.678Z,772.00
2019-06-07T03:59:37.425Z,772.00
2019-06-07T04:00:36.750Z,773.00
2019-06-07T04:01:37.675Z,772.00
2019-06-07T04:02:38.602Z,772.00
2019-06-07T04:03:43.576Z,770.00
2019-06-07T04:04:38.505Z,773.00
2019-06-07T04:05:41.222Z,772.00
2019-06-07T04:06:41.535Z,772.00
2019-06-07T04:07:43.719Z,772.00
2019-06-07T04:08:41.950Z,773.00
2019-06-07T04:09:42.657Z,772.00
2019-06-07T04:10:53.390Z,772.00
2019-06-07T04:11:40.959Z,772.00
2019-06-07T04:12:44.016Z,772.00
2019-06-07T04:13:43.122Z,772.00
2019-06-07T04:14:42.920Z,772.00
2019-06-07T04:15:42.699Z,772.00
2019-06-07T04:16:44.801Z,772.00
2019-06-07T04:18:00.950Z,772.00
2019-06-07T04:18:44.520Z,772.00
2019-06-07T04:19:46.190Z,772.00
2019-06-07T04:20:46.838Z,773.00
2019-06-07T04:21:47.343Z,773.00
2019-06-07T04:22:47.861Z,772.00
2019-06-07T04:23:48.740Z,772.00
2019-06-07T04:24:49.485Z,772.00
2019-06-07T04:25:50.047Z,772.00
2019-06-07T04:26:50.689Z,772.00
2019-06-07T04:27:51.592Z,772.00
2019-06-07T04:29:31.507Z,772.00
2019-06-07T04:30:06.666Z,771.00
2019-06-07T04:30:52.613Z,771.00
2019-06-07T04:31:54.362Z,770.00
2019-06-07T04:32:54.879Z,770.00
2019-06-07T04:33:55.363Z,770.00
2019-06-07T04:34:55.973Z,769.00
2019-06-07T04:35:55.389Z,770.00
2019-06-07T04:36:59.619Z,772.00
2019-06-07T04:37:56.653Z,770.00
2019-06-07T04:38:58.230Z,770.00
2019-06-07T04:39:06.767Z,770.00
2019-06-07T04:40:08.182Z,772.00
2019-06-07T04:41:08.650Z,773.00
2019-06-07T04:42:09.286Z,771.00
2019-06-07T04:43:09.866Z,770.00
2019-06-07T04:44:10.354Z,769.00
2019-06-07T04:45:32.587Z,769.00
2019-06-07T04:46:10.803Z,769.00
2019-06-07T04:47:12.481Z,766.00
2019-06-07T04:48:13.041Z,768.00
2019-06-07T04:49:13.758Z,768.00
2019-06-07T04:50:14.373Z,766.00
2019-06-07T04:51:15.414Z,766.00
2019-06-07T04:52:14.911Z,765.00
2019-06-07T04:53:16.669Z,764.00
2019-06-07T04:54:17.252Z,763.00
2019-06-07T04:55:17.745Z,760.00
2019-06-07T04:56:18.268Z,759.00
2019-06-07T04:57:19.050Z,757.00
2019-06-07T04:58:19.522Z,756.00
2019-06-07T05:00:01.141Z,754.00
2019-06-07T05:00:48.483Z,753.00
2019-06-07T05:01:27.471Z,749.00
2019-06-07T05:02:20.990Z,748.00
2019-06-07T05:03:22.545Z,747.00
2019-06-07T05:04:23.057Z,746.00
2019-06-07T05:05:23.856Z,742.00
2019-06-07T05:06:24.025Z,741.00
2019-06-07T05:07:24.479Z,740.00
2019-06-07T05:08:28.485Z,739.00
2019-06-07T05:09:25.004Z,736.00
2019-06-07T05:10:26.738Z,735.00
2019-06-07T05:11:27.256Z,734.00
2019-06-07T05:12:27.729Z,732.00
2019-06-07T05:13:28.004Z,730.00
2019-06-07T05:14:31.167Z,729.00
2019-06-07T05:15:29.587Z,728.00
2019-06-07T05:16:30.493Z,725.00
2019-06-07T05:17:31.279Z,724.00
2019-06-07T05:18:30.269Z,723.00
2019-06-07T05:19:35.186Z,722.00
2019-06-07T05:20:33.630Z,721.00
2019-06-07T05:21:58.342Z,720.00
2019-06-07T05:22:34.934Z,720.00
2019-06-07T05:24:35.591Z,717.00
2019-06-07T05:25:35.695Z,716.00
2019-06-07T05:26:38.523Z,715.00
2019-06-07T05:27:37.914Z,715.00
2019-06-07T05:28:37.852Z,716.00
2019-06-07T05:29:38.365Z,716.00
2019-06-07T05:31:02.005Z,715.00
2019-06-07T05:31:39.753Z,715.00
2019-06-07T05:32:43.759Z,714.00
2019-06-07T05:33:40.593Z,713.00
2019-06-07T05:34:42.430Z,712.00
2019-06-07T05:35:43.179Z,711.00
2019-06-07T05:36:44.328Z,712.00
2019-06-07T05:37:45.485Z,711.00
2019-06-07T05:38:44.719Z,710.00
2019-06-07T05:39:45.538Z,710.00
2019-06-07T05:40:47.919Z,709.00
2019-06-07T05:41:44.447Z,708.00
2019-06-07T05:42:46.607Z,708.00
2019-06-07T05:43:51.492Z,708.00
2019-06-07T05:44:45.817Z,706.00
2019-06-07T05:45:47.059Z,706.00
2019-06-07T05:46:47.055Z,705.00
2019-06-07T05:47:50.680Z,703.00
2019-06-07T05:48:46.578Z,702.00
2019-06-07T05:49:48.095Z,702.00
2019-06-07T05:50:56.587Z,702.00
2019-06-07T05:51:48.208Z,701.00
2019-06-07T05:52:49.807Z,700.00
2019-06-07T05:52:58.377Z,701.00
2019-06-07T05:54:00.169Z,698.00
2019-06-07T05:55:00.649Z,701.00
2019-06-07T05:56:01.117Z,697.00
2019-06-07T05:57:01.619Z,697.00
2019-06-07T05:58:02.074Z,697.00
2019-06-07T05:59:02.557Z,702.00
2019-06-07T06:00:03.425Z,701.00
2019-06-07T06:01:41.589Z,701.00
2019-06-07T06:02:21.453Z,701.00
2019-06-07T06:03:05.978Z,702.00
2019-06-07T06:04:04.605Z,703.00
2019-06-07T06:05:06.082Z,705.00
2019-06-07T06:06:06.510Z,703.00
2019-06-07T06:07:07.218Z,705.00
2019-06-07T06:08:07.808Z,706.00
2019-06-07T06:09:13.689Z,706.00
2019-06-07T06:10:07.926Z,705.00
2019-06-07T06:11:09.749Z,705.00
2019-06-07T06:12:10.317Z,705.00
2019-06-07T06:13:11.103Z,703.00
2019-06-07T06:14:11.526Z,702.00
2019-06-07T06:15:12.158Z,702.00
2019-06-07T06:16:12.628Z,702.00
2019-06-07T06:17:13.133Z,702.00
2019-06-07T06:18:13.572Z,702.00
2019-06-07T06:19:14.354Z,702.00
2019-06-07T06:20:15.136Z,706.00
2019-06-07T06:21:19.116Z,705.00
2019-06-07T06:22:15.168Z,706.00
2019-06-07T06:23:17.115Z,706.00
2019-06-07T06:24:17.598Z,705.00
2019-06-07T06:25:34.447Z,703.00
2019-06-07T06:26:18.266Z,702.00
2019-06-07T06:28:02.511Z,703.00
2019-06-07T06:28:19.255Z,701.00
2019-06-07T06:29:20.745Z,696.00
2019-06-07T06:30:21.315Z,697.00
2019-06-07T06:31:22.030Z,696.00
2019-06-07T06:33:33.645Z,692.00
2019-06-07T06:34:23.260Z,693.00
2019-06-07T06:35:25.124Z,691.00
2019-06-07T06:36:25.727Z,691.00
2019-06-07T06:37:26.507Z,690.00
2019-06-07T06:38:27.276Z,688.00
2019-06-07T06:39:27.903Z,689.00
2019-06-07T06:40:28.619Z,692.00
2019-06-07T06:41:29.114Z,692.00
2019-06-07T06:42:29.606Z,692.00
2019-06-07T06:43:29.887Z,692.00
2019-06-07T06:44:30.414Z,691.00
2019-06-07T06:44:41.812Z,691.00
2019-06-07T06:45:40.136Z,691.00
2019-06-07T06:46:44.822Z,690.00
2019-06-07T06:47:40.807Z,690.00
2019-06-07T06:48:45.489Z,691.00
2019-06-07T06:49:43.375Z,693.00
2019-06-07T06:50:44.413Z,693.00
2019-06-07T06:51:47.016Z,692.00
2019-06-07T06:52:45.466Z,694.00
2019-06-07T06:53:44.376Z,706.00
2019-06-07T06:54:48.780Z,706.00
2019-06-07T06:55:48.423Z,708.00
2019-06-07T06:56:46.998Z,708.00
2019-06-07T06:57:46.478Z,709.00
2019-06-07T06:59:26.940Z,706.00
2019-06-07T06:59:50.452Z,708.00
2019-06-07T07:00:58.914Z,709.00
2019-06-07T07:01:50.566Z,711.00
2019-06-07T07:03:39.574Z,712.00
2019-06-07T07:04:09.705Z,712.00
2019-06-07T07:04:53.537Z,711.00
2019-06-07T07:05:54.237Z,712.00
2019-06-07T07:06:53.381Z,712.00
2019-06-07T07:07:52.995Z,714.00
2019-06-07T07:08:53.428Z,716.00
2019-06-07T07:09:58.945Z,716.00
2019-06-07T07:10:54.989Z,718.00
2019-06-07T07:12:10.248Z,721.00
2019-06-07T07:12:54.528Z,722.00
2019-06-07T07:13:57.060Z,724.00
2019-06-07T07:14:56.212Z,726.00
2019-06-07T07:15:58.367Z,726.00
2019-06-07T07:16:56.844Z,728.00
2019-06-07T07:18:07.793Z,728.00
2019-06-07T07:18:57.444Z,728.00
2019-06-07T07:19:59.207Z,728.00
2019-06-07T07:20:59.765Z,732.00
2019-06-07T07:22:00.292Z,729.00
2019-06-07T07:23:00.666Z,729.00
2019-06-07T07:24:20.435Z,730.00
2019-06-07T07:25:00.391Z,732.00
2019-06-07T07:26:01.808Z,734.00
2019-06-07T07:27:02.253Z,734.00
2019-06-07T07:28:02.650Z,732.00
2019-06-07T07:29:03.001Z,734.00
2019-06-07T07:30:35.637Z,734.00
2019-06-07T07:31:03.098Z,734.00
2019-06-07T07:32:04.768Z,735.00
2019-06-07T07:33:06.613Z,735.00
2019-06-07T07:34:33.992Z,735.00
2019-06-07T07:35:05.957Z,735.00
2019-06-07T07:36:28.195Z,736.00
2019-06-07T07:37:07.420Z,740.00
2019-06-07T07:38:09.018Z,740.00
2019-06-07T07:39:08.498Z,739.00
2019-06-07T07:40:55.578Z,739.00
2019-06-07T07:41:15.436Z,739.00
2019-06-07T07:42:20.895Z,739.00
2019-06-07T07:43:10.616Z,740.00
2019-06-07T07:44:12.152Z,740.00
2019-06-07T07:45:12.574Z,739.00
2019-06-07T07:46:29.204Z,739.00
2019-06-07T07:47:13.033Z,739.00
2019-06-07T07:48:18.077Z,739.00
2019-06-07T07:49:14.064Z,739.00
2019-06-07T07:50:15.673Z,739.00
2019-06-07T07:51:16.191Z,740.00
2019-06-07T07:52:17.061Z,741.00
2019-06-07T07:53:17.877Z,740.00
2019-06-07T07:54:18.314Z,742.00
2019-06-07T07:55:18.803Z,744.00
2019-06-07T07:56:18.330Z,744.00
2019-06-07T07:57:19.766Z,744.00
2019-06-07T07:58:20.218Z,744.00
2019-06-07T07:59:20.783Z,742.00
2019-06-07T08:01:20.928Z,741.00
2019-06-07T08:02:22.458Z,744.00
2019-06-07T08:03:22.142Z,742.00
2019-06-07T08:03:30.711Z,744.00
2019-06-07T08:05:13.045Z,745.00
2019-06-07T08:05:42.349Z,744.00
2019-06-07T08:06:32.711Z,744.00
2019-06-07T08:07:34.288Z,741.00
2019-06-07T08:08:33.751Z,740.00
2019-06-07T08:09:35.272Z,740.00
2019-06-07T08:10:35.850Z,740.00
2019-06-07T08:11:36.353Z,739.00
2019-06-07T08:12:55.458Z,739.00
2019-06-07T08:13:37.421Z,739.00
2019-06-07T08:14:37.332Z,739.00
2019-06-07T08:15:38.839Z,740.00
2019-06-07T08:16:39.627Z,739.00
2019-06-07T08:17:40.236Z,741.00
2019-06-07T08:18:40.762Z,740.00
2019-06-07T08:19:41.336Z,739.00
2019-06-07T08:21:01.512Z,739.00
2019-06-07T08:21:41.636Z,738.00
2019-06-07T08:22:43.219Z,738.00
2019-06-07T08:23:43.623Z,738.00
2019-06-07T08:24:44.251Z,738.00
2019-06-07T08:25:44.798Z,736.00
2019-06-07T08:27:06.856Z,736.00
2019-06-07T08:27:45.046Z,737.00
2019-06-07T08:28:48.423Z,738.00
2019-06-07T08:30:03.738Z,737.00
2019-06-07T08:30:50.676Z,736.00
2019-06-07T08:31:48.242Z,736.00
2019-06-07T08:32:52.638Z,736.00
2019-06-07T08:33:49.887Z,736.00
2019-06-07T08:34:52.433Z,736.00
2019-06-07T08:36:19.460Z,736.00
2019-06-07T08:36:51.657Z,735.00
2019-06-07T08:38:52.899Z,735.00
2019-06-07T08:39:52.814Z,733.00
2019-06-07T08:40:56.868Z,735.00
2019-06-07T08:42:02.106Z,733.00
2019-06-07T08:43:11.345Z,732.00
2019-06-07T08:43:56.484Z,735.00
2019-06-07T08:45:01.264Z,735.00
2019-06-07T08:46:01.156Z,735.00
2019-06-07T08:47:15.975Z,735.00
2019-06-07T08:47:58.102Z,735.00
2019-06-07T08:49:02.203Z,735.00
2019-06-07T08:50:04.375Z,735.00
2019-06-07T08:51:06.526Z,734.00
2019-06-07T08:52:09.967Z,734.00
2019-06-07T08:53:05.104Z,734.00
2019-06-07T08:54:18.710Z,732.00
2019-06-07T08:55:04.752Z,732.00
2019-06-07T08:56:06.984Z,734.00
2019-06-07T08:57:20.094Z,734.00
2019-06-07T08:58:08.203Z,733.00
2019-06-07T08:59:10.805Z,738.00
2019-06-07T09:00:15.960Z,738.00
2019-06-07T09:01:07.847Z,736.00
2019-06-07T09:02:14.687Z,735.00
2019-06-07T09:03:07.155Z,735.00
2019-06-07T09:04:09.956Z,735.00
2019-06-07T09:05:11.684Z,735.00
2019-06-07T09:06:08.935Z,735.00
2019-06-07T09:07:18.834Z,735.00
2019-06-07T09:08:28.723Z,734.00
2019-06-07T09:09:07.531Z,735.00
2019-06-07T09:10:14.411Z,739.00
2019-06-07T09:11:11.177Z,738.00
2019-06-07T09:12:11.320Z,740.00
2019-06-07T09:13:11.659Z,738.00
2019-06-07T09:14:10.176Z,736.00
2019-06-07T09:15:21.285Z,736.00
2019-06-07T09:16:11.763Z,736.00
2019-06-07T09:17:13.068Z,736.00
2019-06-07T09:19:13.772Z,738.00
2019-06-07T09:20:35.075Z,736.00
2019-06-07T09:21:14.664Z,737.00
2019-06-07T09:22:16.303Z,738.00
2019-06-07T09:23:17.269Z,739.00
2019-06-07T09:24:15.530Z,739.00
2019-06-07T09:25:21.141Z,737.00
2019-06-07T09:26:18.874Z,736.00
2019-06-07T09:27:17.190Z,736.00
2019-06-07T09:28:20.468Z,736.00
2019-06-07T09:29:18.762Z,735.00
2019-06-07T09:30:20.230Z,734.00
2019-06-07T09:31:20.721Z,735.00
2019-06-07T09:32:21.304Z,733.00
2019-06-07T09:32:29.867Z,734.00
2019-06-07T09:33:31.748Z,732.00
2019-06-07T09:34:32.362Z,732.00
2019-06-07T09:35:33.293Z,734.00
2019-06-07T09:36:33.969Z,734.00
2019-06-07T09:38:16.122Z,735.00
2019-06-07T09:38:33.913Z,734.00
2019-06-07T09:39:35.351Z,734.00
2019-06-07T09:40:35.732Z,734.00
2019-06-07T09:41:47.512Z,734.00
2019-06-07T09:42:35.743Z,732.00
2019-06-07T09:44:36.621Z,732.00
2019-06-07T09:45:38.153Z,733.00
2019-06-07T09:46:38.817Z,732.00
2019-06-07T09:47:37.933Z,734.00
2019-06-07T09:49:38.897Z,735.00
2019-06-07T09:50:40.379Z,735.00
2019-06-07T09:51:41.003Z,734.00
2019-06-07T09:52:57.765Z,734.00
2019-06-07T09:53:41.030Z,732.00
2019-06-07T09:55:06.071Z,732.00
2019-06-07T09:55:42.498Z,730.00
2019-06-07T09:56:43.891Z,730.00
2019-06-07T09:57:44.789Z,732.00
2019-06-07T09:58:51.826Z,733.00
2019-06-07T09:59:44.823Z,732.00
2019-06-07T10:00:46.236Z,730.00
2019-06-07T10:01:46.740Z,730.00
2019-06-07T10:02:47.224Z,730.00
2019-06-07T10:03:46.835Z,730.00
2019-06-07T10:04:48.659Z,730.00
2019-06-07T10:05:49.477Z,730.00
2019-06-07T10:06:49.979Z,730.00
2019-06-07T10:08:02.495Z,730.00
2019-06-07T10:10:12.611Z,732.00
2019-06-07T10:10:51.239Z,732.00
2019-06-07T10:11:52.952Z,732.00
2019-06-07T10:12:52.955Z,733.00
2019-06-07T10:13:53.502Z,732.00
2019-06-07T10:14:54.018Z,729.00
2019-06-07T10:15:54.868Z,730.00
2019-06-07T10:16:55.364Z,729.00
2019-06-07T10:17:55.783Z,730.00
2019-06-07T10:18:56.030Z,730.00
2019-06-07T10:19:56.657Z,730.00
2019-06-07T10:20:57.194Z,732.00
2019-06-07T10:21:59.123Z,734.00
2019-06-07T10:22:57.508Z,732.00
2019-06-07T10:23:59.296Z,734.00
2019-06-07T10:24:59.695Z,734.00
2019-06-07T10:25:59.662Z,734.00
2019-06-07T10:27:01.721Z,734.00
2019-06-07T10:28:01.860Z,733.00
2019-06-07T10:29:01.909Z,732.00
2019-06-07T10:30:02.721Z,732.00
2019-06-07T10:31:04.503Z,735.00
2019-06-07T10:32:04.493Z,734.00
2019-06-07T10:33:05.049Z,735.00
2019-06-07T10:33:13.706Z,735.00
2019-06-07T10:34:14.737Z,735.00
2019-06-07T10:35:16.521Z,734.00
2019-06-07T10:36:14.868Z,734.00
2019-06-07T10:37:16.380Z,734.00
2019-06-07T10:38:16.923Z,734.00
2019-06-07T10:39:17.643Z,732.00
2019-06-07T10:40:18.275Z,730.00
2019-06-07T10:41:18.733Z,732.00
2019-06-07T10:42:19.619Z,733.00
2019-06-07T10:43:20.148Z,732.00
2019-06-07T10:44:19.874Z,730.00
2019-06-07T10:45:21.302Z,732.00
2019-06-07T10:46:21.938Z,732.00
2019-06-07T10:47:22.736Z,734.00
2019-06-07T10:48:25.096Z,735.00
2019-06-07T10:49:22.836Z,735.00
2019-06-07T10:50:24.372Z,734.00
2019-06-07T10:51:24.917Z,734.00
2019-06-07T10:52:25.351Z,733.00
2019-06-07T10:53:26.084Z,732.00
2019-06-07T10:54:30.530Z,730.00
2019-06-07T10:55:26.475Z,732.00
2019-06-07T10:56:27.949Z,729.00
2019-06-07T10:57:28.492Z,729.00
2019-06-07T10:58:28.961Z,729.00
2019-06-07T10:59:29.720Z,729.00
2019-06-07T11:00:30.197Z,730.00
2019-06-07T11:01:30.751Z,729.00
2019-06-07T11:02:30.421Z,727.00
2019-06-07T11:03:31.998Z,728.00
2019-06-07T11:04:32.517Z,729.00
2019-06-07T11:05:32.413Z,728.00
2019-06-07T11:06:34.140Z,729.00
2019-06-07T11:07:34.849Z,729.00
2019-06-07T11:08:35.485Z,729.00
2019-06-07T11:09:35.976Z,729.00
2019-06-07T11:10:36.469Z,730.00
2019-06-07T11:11:37.038Z,732.00
2019-06-07T11:12:37.457Z,730.00
2019-06-07T11:13:38.009Z,732.00
2019-06-07T11:14:38.605Z,732.00
2019-06-07T11:15:39.079Z,732.00
2019-06-07T11:16:38.677Z,732.00
2019-06-07T11:17:39.901Z,730.00
2019-06-07T11:18:40.379Z,729.00
2019-06-07T11:19:41.012Z,729.00
2019-06-07T11:20:41.516Z,730.00
2019-06-07T11:21:42.019Z,734.00
2019-06-07T11:22:41.512Z,733.00
2019-06-07T11:22:50.588Z,734.00
2019-06-07T11:23:52.277Z,734.00
2019-06-07T11:24:51.682Z,732.00
2019-06-07T11:25:52.073Z,734.00
2019-06-07T11:26:53.914Z,734.00
2019-06-07T11:27:54.500Z,734.00
2019-06-07T11:28:54.521Z,733.00
2019-06-07T11:29:55.325Z,735.00
2019-06-07T11:30:56.134Z,734.00
2019-06-07T11:31:56.648Z,733.00
2019-06-07T11:32:57.158Z,734.00
2019-06-07T11:33:57.697Z,734.00
2019-06-07T11:34:58.225Z,732.00
2019-06-07T11:35:58.960Z,732.00
2019-06-07T11:36:59.728Z,733.00
2019-06-07T11:38:00.445Z,734.00
2019-06-07T11:39:01.039Z,733.00
2019-06-07T11:40:01.829Z,733.00
2019-06-07T11:41:00.992Z,735.00
2019-06-07T11:42:02.494Z,734.00
2019-06-07T11:43:03.136Z,735.00
2019-06-07T11:44:02.533Z,735.00
2019-06-07T11:45:02.951Z,735.00
2019-06-07T11:46:04.496Z,735.00
2019-06-07T11:47:06.387Z,734.00
2019-06-07T11:48:04.963Z,735.00
2019-06-07T11:49:06.477Z,736.00
2019-06-07T11:50:07.264Z,736.00
2019-06-07T11:51:06.822Z,736.00
2019-06-07T11:52:07.395Z,735.00
2019-06-07T11:53:08.589Z,735.00
2019-06-07T11:54:09.630Z,734.00
2019-06-07T11:55:09.838Z,734.00
2019-06-07T11:56:10.339Z,734.00
2019-06-07T11:57:10.920Z,734.00
2019-06-07T11:58:16.119Z,734.00
2019-06-07T11:59:11.751Z,734.00
2019-06-07T12:00:14.144Z,735.00
2019-06-07T12:01:14.962Z,735.00
2019-06-07T12:02:13.760Z,735.00
2019-06-07T12:03:15.960Z,735.00
2019-06-07T12:04:31.054Z,735.00
2019-06-07T12:05:18.391Z,734.00
2019-06-07T12:06:16.495Z,735.00
2019-06-07T12:07:17.725Z,734.00
2019-06-07T12:08:18.224Z,734.00
2019-06-07T12:09:18.826Z,732.00
2019-06-07T12:10:22.678Z,734.00
2019-06-07T12:11:18.969Z,733.00
2019-06-07T12:12:20.775Z,733.00
2019-06-07T12:13:20.493Z,734.00
2019-06-07T12:14:21.970Z,733.00
2019-06-07T12:15:22.687Z,732.00
2019-06-07T12:16:22.377Z,732.00
2019-06-07T12:17:23.788Z,729.00
2019-06-07T12:18:24.227Z,729.00
2019-06-07T12:19:24.916Z,730.00
2019-06-07T12:20:25.400Z,730.00
2019-06-07T12:21:25.037Z,732.00
2019-06-07T12:22:26.579Z,732.00
2019-06-07T12:23:27.146Z,730.00
2019-06-07T12:24:27.619Z,729.00
2019-06-07T12:25:27.624Z,732.00
2019-06-07T12:26:28.166Z,730.00
2019-06-07T12:27:28.295Z,730.00
2019-06-07T12:27:37.337Z,730.00
2019-06-07T12:28:38.977Z,732.00
2019-06-07T12:29:39.609Z,732.00
2019-06-07T12:30:40.225Z,734.00
2019-06-07T12:31:39.794Z,734.00
2019-06-07T12:32:41.253Z,735.00
2019-06-07T12:33:41.710Z,732.00